Time;durP1;ratioP1;P1;durP2;ratioP2;P2;SDS_P1;SDS_P2;PMS_P1;PMS_P2;Temp;Humidity;BMP_temperature;BMP_pressure;BME280_temperature;BME280_humidity;BME280_pressure;Samples;Min_cycle;Max_cycle;Signal;HPM_P1;HPM_P2
2022/04/24 00:00:05;;;;;;;11.02;8.60;;;10.30;99.90;;;;;;5071289;28;20215;-73
2022/04/24 00:02:54;;;;;;;8.35;7.28;;;10.20;99.90;;;;;;5073367;28;20793;-73
2022/04/24 00:05:43;;;;;;;11.20;8.20;;;10.20;99.90;;;;;;5066622;28;20233;-73
2022/04/24 00:08:31;;;;;;;11.25;8.13;;;10.20;99.90;;;;;;5065956;28;20743;-74
2022/04/24 00:11:20;;;;;;;11.57;8.00;;;10.10;99.90;;;;;;5077810;28;20527;-72
2022/04/24 00:14:10;;;;;;;12.80;8.43;;;10.00;99.90;;;;;;5073447;28;20230;-72
2022/04/24 00:17:00;;;;;;;10.38;7.68;;;10.10;99.90;;;;;;5086242;28;20223;-72
2022/04/24 00:19:49;;;;;;;10.07;8.07;;;10.10;99.90;;;;;;5069576;28;20225;-73
2022/04/24 00:22:38;;;;;;;8.93;8.02;;;10.00;99.90;;;;;;5060676;28;20212;-73
2022/04/24 00:25:26;;;;;;;15.07;9.07;;;10.00;99.90;;;;;;5055766;28;20239;-75
2022/04/24 00:28:15;;;;;;;11.27;8.82;;;10.00;99.90;;;;;;5051568;28;20234;-74
2022/04/24 00:31:03;;;;;;;10.13;8.05;;;10.10;99.90;;;;;;5057726;28;20212;-74
2022/04/24 00:33:53;;;;;;;10.90;8.77;;;10.10;99.90;;;;;;5059264;28;20256;-73
2022/04/24 00:36:43;;;;;;;12.35;8.90;;;10.10;99.90;;;;;;5052472;28;20694;-74
2022/04/24 00:39:32;;;;;;;10.98;8.55;;;10.10;99.90;;;;;;5052365;28;20220;-75
2022/04/24 00:42:21;;;;;;;11.98;9.43;;;10.00;99.90;;;;;;5059201;28;20216;-74
2022/04/24 00:45:10;;;;;;;10.45;8.05;;;10.00;99.90;;;;;;5070072;28;20286;-74
2022/04/24 00:48:06;;;;;;;10.48;8.90;;;9.90;99.90;;;;;;5054028;28;20216;-74
2022/04/24 00:51:02;;;;;;;9.60;8.60;;;9.80;99.90;;;;;;5068347;28;20286;-74
2022/04/24 00:53:51;;;;;;;9.13;8.15;;;9.80;99.90;;;;;;5057543;28;20466;-72
2022/04/24 00:56:42;;;;;;;10.27;9.10;;;9.70;99.90;;;;;;5071498;28;20250;-72
2022/04/24 00:59:30;;;;;;;12.10;8.73;;;9.80;99.90;;;;;;5053142;28;20226;-73
2022/04/24 01:02:19;;;;;;;10.45;8.98;;;9.70;99.90;;;;;;5075797;28;20760;-73
2022/04/24 01:05:10;;;;;;;11.60;9.75;;;9.60;99.90;;;;;;5069721;28;20706;-74
2022/04/24 01:08:00;;;;;;;11.03;9.53;;;9.70;99.90;;;;;;5069724;28;20234;-73
2022/04/24 01:10:48;;;;;;;13.07;10.15;;;9.80;99.90;;;;;;5074184;28;20220;-73
2022/04/24 01:13:37;;;;;;;12.68;10.65;;;10.00;99.90;;;;;;5065180;28;20299;-73
2022/04/24 01:16:26;;;;;;;16.05;12.20;;;10.00;99.90;;;;;;5075291;28;20648;-73
2022/04/24 01:19:14;;;;;;;17.40;14.00;;;9.70;99.90;;;;;;5081433;28;20234;-76
2022/04/24 01:22:05;;;;;;;18.20;14.40;;;9.80;99.90;;;;;;5081002;28;20234;-75
2022/04/24 01:24:53;;;;;;;17.75;13.93;;;9.70;99.90;;;;;;5072751;28;20223;-74
2022/04/24 01:27:42;;;;;;;19.57;15.80;;;9.60;99.90;;;;;;5076180;28;20224;-74
2022/04/24 01:30:31;;;;;;;21.50;16.45;;;9.50;99.90;;;;;;5072805;28;20306;-74
2022/04/24 01:33:19;;;;;;;27.00;18.23;;;9.40;99.90;;;;;;5058781;28;20220;-74
2022/04/24 01:36:08;;;;;;;27.95;19.83;;;9.60;99.90;;;;;;5071638;28;20333;-74
2022/04/24 01:38:58;;;;;;;24.58;19.35;;;9.50;99.90;;;;;;5070302;28;20219;-74
2022/04/24 01:41:47;;;;;;;27.42;20.67;;;9.40;99.90;;;;;;5055692;28;20219;-74
2022/04/24 01:44:35;;;;;;;32.22;21.38;;;9.30;99.90;;;;;;5057406;28;20574;-74
2022/04/24 01:47:24;;;;;;;30.40;21.80;;;9.10;99.90;;;;;;5061298;28;20260;-74
2022/04/24 01:50:13;;;;;;;31.50;22.77;;;9.00;99.90;;;;;;5070555;28;20846;-74
2022/04/24 01:53:01;;;;;;;33.90;23.87;;;8.80;99.90;;;;;;5059378;28;20240;-73
2022/04/24 01:55:51;;;;;;;31.70;22.87;;;8.90;99.90;;;;;;5054488;28;20815;-72
2022/04/24 01:58:40;;;;;;;37.37;24.70;;;9.10;99.90;;;;;;5058872;28;20720;-74
2022/04/24 02:01:29;;;;;;;32.70;24.23;;;9.00;99.90;;;;;;5061490;28;20241;-73
2022/04/24 02:04:19;;;;;;;32.73;23.57;;;9.10;99.90;;;;;;5077364;28;20233;-73
2022/04/24 02:07:07;;;;;;;35.60;23.88;;;9.20;99.90;;;;;;5071256;28;20246;-74
2022/04/24 02:09:56;;;;;;;34.93;23.93;;;9.40;99.90;;;;;;5070275;28;20586;-73
2022/04/24 02:12:46;;;;;;;34.17;23.17;;;9.40;99.90;;;;;;5060692;28;20264;-74
2022/04/24 02:15:35;;;;;;;36.10;23.80;;;9.40;99.90;;;;;;5074826;28;20715;-75
2022/04/24 02:18:24;;;;;;;31.07;22.47;;;9.20;99.90;;;;;;5074280;28;20771;-74
2022/04/24 02:21:13;;;;;;;33.00;22.97;;;9.30;99.90;;;;;;5075304;28;20226;-74
2022/04/24 02:24:02;;;;;;;29.27;21.23;;;9.30;99.90;;;;;;5071596;28;20230;-74
2022/04/24 02:26:50;;;;;;;31.27;22.48;;;9.30;99.90;;;;;;5074152;28;20223;-75
2022/04/24 02:29:41;;;;;;;31.80;21.80;;;9.40;99.90;;;;;;5070086;28;20239;-74
2022/04/24 02:32:29;;;;;;;28.23;20.53;;;9.50;99.90;;;;;;5073478;28;20250;-74
2022/04/24 02:35:19;;;;;;;29.50;20.60;;;9.40;99.90;;;;;;5070311;28;20228;-74
2022/04/24 02:38:08;;;;;;;29.30;20.67;;;9.30;99.90;;;;;;5072491;28;20239;-75
2022/04/24 02:40:56;;;;;;;30.93;21.13;;;9.20;99.90;;;;;;5058794;28;20230;-73
2022/04/24 02:43:45;;;;;;;30.57;18.43;;;9.30;99.90;;;;;;5053420;28;20230;-73
2022/04/24 02:46:35;;;;;;;26.00;18.47;;;9.20;99.90;;;;;;5071252;28;20987;-73
2022/04/24 02:49:23;;;;;;;28.33;19.03;;;9.40;99.90;;;;;;5073496;28;20227;-73
2022/04/24 02:52:12;;;;;;;26.95;18.55;;;9.40;99.90;;;;;;5055352;28;20253;-73
2022/04/24 02:55:00;;;;;;;28.00;18.30;;;9.40;99.90;;;;;;5076326;28;20215;-74
2022/04/24 02:57:50;;;;;;;22.50;17.33;;;9.30;99.90;;;;;;5073927;28;20254;-74
2022/04/24 03:00:43;;;;;;;28.30;18.03;;;9.30;99.90;;;;;;5071628;28;20387;-74
2022/04/24 03:03:33;;;;;;;24.23;17.17;;;8.90;99.90;;;;;;5057687;28;20648;-76
2022/04/24 03:06:22;;;;;;;28.73;17.60;;;8.80;99.90;;;;;;5067394;28;20874;-75
2022/04/24 03:09:10;;;;;;;27.90;18.17;;;8.80;99.90;;;;;;5058841;28;20231;-75
2022/04/24 03:11:59;;;;;;;26.23;17.83;;;8.80;99.90;;;;;;5076362;28;20215;-74
2022/04/24 03:14:48;;;;;;;27.37;17.07;;;8.70;99.90;;;;;;5057227;28;20227;-74
2022/04/24 03:17:37;;;;;;;23.37;16.47;;;8.80;99.90;;;;;;5074148;28;20219;-74
2022/04/24 03:20:28;;;;;;;26.00;17.07;;;8.70;99.90;;;;;;5072118;28;20230;-75
2022/04/24 03:23:16;;;;;;;27.90;17.07;;;8.60;99.90;;;;;;5071554;28;20606;-74
2022/04/24 03:26:05;;;;;;;24.30;16.57;;;8.40;99.90;;;;;;5070608;28;20729;-74
2022/04/24 03:28:54;;;;;;;25.87;17.17;;;8.40;99.90;;;;;;5058346;28;20230;-74
2022/04/24 03:31:42;;;;;;;28.20;17.87;;;8.50;99.90;;;;;;5074942;28;20224;-75
2022/04/24 03:34:31;;;;;;;25.60;17.40;;;8.60;99.90;;;;;;5054163;28;20223;-74
2022/04/24 03:37:21;;;;;;;29.87;17.47;;;8.60;99.90;;;;;;5068688;28;20416;-74
2022/04/24 03:40:11;;;;;;;22.50;16.33;;;8.70;99.90;;;;;;5068704;28;20378;-73
2022/04/24 03:42:59;;;;;;;27.20;19.33;;;8.70;99.90;;;;;;5074532;28;20914;-74
2022/04/24 03:45:48;;;;;;;24.83;17.13;;;8.70;99.90;;;;;;5053522;28;20250;-73
2022/04/24 03:48:37;;;;;;;25.97;16.97;;;8.90;99.90;;;;;;5072791;28;20224;-73
2022/04/24 03:51:25;;;;;;;25.90;16.87;;;8.90;99.90;;;;;;5058846;28;20268;-73
2022/04/24 03:54:15;;;;;;;25.10;16.17;;;9.00;99.90;;;;;;5069376;28;20678;-74
2022/04/24 03:57:05;;;;;;;24.17;16.73;;;9.10;99.90;;;;;;5067743;28;20217;-73
2022/04/24 03:59:53;;;;;;;24.97;16.97;;;9.00;99.90;;;;;;5072332;28;20225;-74
2022/04/24 04:02:43;;;;;;;26.77;17.07;;;8.70;99.90;;;;;;5054386;28;20236;-74
2022/04/24 04:05:36;;;;;;;26.07;16.50;;;8.50;99.90;;;;;;5078323;28;20222;-73
2022/04/24 04:08:25;;;;;;;24.33;16.83;;;8.60;99.90;;;;;;5073734;28;20221;-74
2022/04/24 04:11:15;;;;;;;26.73;16.87;;;8.70;99.90;;;;;;5076967;28;20985;-74
2022/04/24 04:14:03;;;;;;;28.40;17.60;;;8.70;99.90;;;;;;5076569;28;20232;-74
2022/04/24 04:16:52;;;;;;;22.80;16.37;;;8.80;99.90;;;;;;5072890;28;20233;-74
2022/04/24 04:19:41;;;;;;;24.10;16.33;;;8.80;99.90;;;;;;5074220;28;20234;-74
2022/04/24 04:22:30;;;;;;;31.07;16.97;;;8.90;99.90;;;;;;5063182;28;21034;-74
2022/04/24 04:25:19;;;;;;;25.90;16.17;;;8.80;99.90;;;;;;5075452;28;20253;-75
2022/04/24 04:28:09;;;;;;;25.80;16.55;;;9.00;99.90;;;;;;5060633;28;20228;-74
2022/04/24 04:30:57;;;;;;;24.63;16.07;;;9.10;99.90;;;;;;5067825;28;20562;-83
2022/04/24 04:33:46;;;;;;;22.13;15.40;;;9.10;99.90;;;;;;5068017;28;20467;-79
2022/04/24 04:36:35;;;;;;;25.87;16.37;;;9.00;99.90;;;;;;5072827;28;20679;-84
2022/04/24 04:39:23;;;;;;;24.10;16.53;;;8.80;99.90;;;;;;5063058;28;20732;-80
2022/04/24 04:42:12;;;;;;;23.67;16.03;;;8.70;99.90;;;;;;5085039;28;20238;-82
2022/04/24 04:45:03;;;;;;;23.67;15.93;;;8.70;99.90;;;;;;5070575;28;20227;-79
2022/04/24 04:47:52;;;;;;;23.00;16.07;;;8.80;99.90;;;;;;5069149;28;20289;-77
2022/04/24 04:50:41;;;;;;;23.10;16.00;;;8.60;99.90;;;;;;5066505;28;20213;-77
2022/04/24 04:53:30;;;;;;;25.57;16.10;;;8.50;99.90;;;;;;5062674;28;20308;-80
2022/04/24 04:56:19;;;;;;;26.40;16.77;;;8.50;99.90;;;;;;5060499;28;20222;-81
2022/04/24 04:59:07;;;;;;;25.97;16.93;;;8.40;99.90;;;;;;5074541;28;20233;-80
2022/04/24 05:01:58;;;;;;;21.17;16.03;;;8.60;99.90;;;;;;5066160;28;20233;-80
2022/04/24 05:04:53;;;;;;;25.77;17.03;;;8.80;99.90;;;;;;5088763;28;20717;-78
2022/04/24 05:07:42;;;;;;;23.98;16.20;;;8.90;99.90;;;;;;5089330;28;20230;-80
2022/04/24 05:10:30;;;;;;;25.05;18.38;;;9.00;99.90;;;;;;5076975;28;20223;-80
2022/04/24 05:13:19;;;;;;;26.05;16.85;;;9.10;99.90;;;;;;5068008;28;20215;-79
2022/04/24 05:16:08;;;;;;;25.98;16.08;;;9.20;99.90;;;;;;5077923;28;20230;-81
2022/04/24 05:18:58;;;;;;;22.20;15.70;;;9.30;99.90;;;;;;5067225;28;20254;-78
2022/04/24 05:21:47;;;;;;;23.67;16.83;;;9.50;99.90;;;;;;5072441;28;20241;-78
2022/04/24 05:24:36;;;;;;;25.98;15.48;;;9.50;99.90;;;;;;5078757;28;20215;-79
2022/04/24 05:27:25;;;;;;;21.88;14.30;;;9.70;99.90;;;;;;5080531;28;20227;-78
2022/04/24 05:30:14;;;;;;;19.38;14.10;;;9.80;99.90;;;;;;5084997;28;20215;-80
2022/04/24 05:33:02;;;;;;;21.13;13.32;;;10.10;99.90;;;;;;5079437;28;20239;-78
2022/04/24 05:35:53;;;;;;;20.70;13.77;;;10.80;99.90;;;;;;5074033;28;20220;-80
2022/04/24 05:38:47;;;;;;;20.77;13.38;;;11.40;99.90;;;;;;5061344;28;20266;-79
2022/04/24 05:41:35;;;;;;;19.35;13.18;;;11.70;99.90;;;;;;5073400;28;20235;-79
2022/04/24 05:44:24;;;;;;;18.60;13.32;;;11.70;99.90;;;;;;5062487;28;20227;-78
2022/04/24 05:47:13;;;;;;;15.32;11.88;;;11.40;99.90;;;;;;5057192;28;21201;-78
2022/04/24 05:50:01;;;;;;;17.60;12.02;;;11.30;99.90;;;;;;5046672;28;20233;-79
2022/04/24 05:52:54;;;;;;;17.50;12.35;;;11.00;99.90;;;;;;5055269;28;20239;-79
2022/04/24 05:55:42;;;;;;;17.50;12.43;;;11.00;99.90;;;;;;5076049;28;20211;-79
2022/04/24 05:58:31;;;;;;;18.95;13.05;;;11.10;99.90;;;;;;5054401;28;20234;-78
2022/04/24 06:01:20;;;;;;;18.75;13.20;;;11.10;99.90;;;;;;5061407;28;20235;-79
2022/04/24 06:04:09;;;;;;;20.20;13.07;;;11.10;99.90;;;;;;5062580;28;20219;-80
2022/04/24 06:06:57;;;;;;;16.92;13.40;;;10.80;99.90;;;;;;5062275;28;20228;-79
2022/04/24 06:09:48;;;;;;;19.98;13.35;;;11.00;99.90;;;;;;5076481;28;20326;-77
2022/04/24 06:12:47;;;;;;;19.77;13.43;;;10.70;99.90;;;;;;5078555;28;20242;-78
2022/04/24 06:15:39;;;;;;;18.83;12.93;;;10.80;99.90;;;;;;5054166;28;20208;-80
2022/04/24 06:18:28;;;;;;;17.55;12.30;;;10.90;99.90;;;;;;5067092;28;20230;-80
2022/04/24 06:21:17;;;;;;;19.00;13.20;;;11.00;99.90;;;;;;5080946;28;20361;-81
2022/04/24 06:24:06;;;;;;;17.20;12.45;;;11.10;99.90;;;;;;5067108;28;20599;-80
2022/04/24 06:26:57;;;;;;;18.85;13.02;;;11.20;99.90;;;;;;5066782;28;20365;-79
2022/04/24 06:29:47;;;;;;;17.75;12.25;;;11.40;99.90;;;;;;5084668;28;20239;-79
2022/04/24 06:32:39;;;;;;;16.58;11.63;;;11.50;99.90;;;;;;5072553;28;20231;-79
2022/04/24 06:35:28;;;;;;;18.83;12.30;;;11.90;99.90;;;;;;5070258;28;20220;-80
2022/04/24 06:38:17;;;;;;;16.20;11.68;;;12.60;99.90;;;;;;5056792;28;20212;-79
2022/04/24 06:41:06;;;;;;;17.95;11.85;;;12.60;99.90;;;;;;5065897;28;20240;-80
2022/04/24 06:43:56;;;;;;;16.77;11.77;;;12.60;99.90;;;;;;5080437;28;20226;-80
2022/04/24 06:46:46;;;;;;;19.98;12.45;;;12.40;99.90;;;;;;5085068;28;20219;-80
2022/04/24 06:49:35;;;;;;;18.30;11.45;;;12.50;99.90;;;;;;5057044;28;20615;-80
2022/04/24 06:52:24;;;;;;;15.45;10.20;;;13.30;99.90;;;;;;5083195;28;20246;-80
2022/04/24 06:55:13;;;;;;;13.75;10.52;;;14.20;99.90;;;;;;5077617;28;20300;-80
2022/04/24 06:58:02;;;;;;;15.07;10.82;;;14.10;99.90;;;;;;5080992;28;20436;-79
2022/04/24 07:00:54;;;;;;;14.40;9.60;;;13.90;99.90;;;;;;5082516;28;20223;-79
2022/04/24 07:03:58;;;;;;;15.02;9.73;;;13.30;99.90;;;;;;5078524;28;20219;-80
2022/04/24 07:06:47;;;;;;;13.52;9.50;;;12.90;99.90;;;;;;5066787;28;20295;-80
2022/04/24 07:09:35;;;;;;;11.73;9.80;;;12.90;99.90;;;;;;5063007;28;20224;-79
2022/04/24 07:12:24;;;;;;;11.80;10.00;;;12.60;99.90;;;;;;5063685;28;20224;-78
2022/04/24 07:15:14;;;;;;;14.40;9.05;;;12.50;99.90;;;;;;5048585;28;20669;-79
2022/04/24 07:18:05;;;;;;;13.63;10.32;;;12.90;99.90;;;;;;5084284;28;20476;-78
2022/04/24 07:20:55;;;;;;;11.55;9.32;;;13.80;99.90;;;;;;5061945;28;20223;-79
2022/04/24 07:23:44;;;;;;;12.30;9.57;;;15.00;99.90;;;;;;5079242;28;20249;-79
2022/04/24 07:26:33;;;;;;;14.93;11.00;;;14.60;99.90;;;;;;5063803;28;20338;-80
2022/04/24 07:29:22;;;;;;;13.52;10.68;;;15.80;99.90;;;;;;5065571;28;20250;-79
2022/04/24 07:32:11;;;;;;;13.68;10.10;;;15.60;99.90;;;;;;5060954;28;20216;-80
2022/04/24 07:35:01;;;;;;;14.70;11.68;;;14.70;99.90;;;;;;5061300;28;20219;-80
2022/04/24 07:37:50;;;;;;;16.10;11.85;;;13.80;99.90;;;;;;5061970;28;20212;-80
2022/04/24 07:40:40;;;;;;;16.10;11.80;;;13.60;99.90;;;;;;5059411;28;21024;-78
2022/04/24 07:43:29;;;;;;;17.67;12.82;;;14.30;99.90;;;;;;5083135;28;20313;-79
2022/04/24 07:46:17;;;;;;;16.77;12.25;;;15.60;99.90;;;;;;5073922;28;21188;-79
2022/04/24 07:49:06;;;;;;;17.15;11.85;;;15.90;99.90;;;;;;5064352;28;20230;-79
2022/04/24 07:51:56;;;;;;;14.65;11.30;;;15.30;99.90;;;;;;5076775;28;20219;-80
2022/04/24 07:54:45;;;;;;;13.02;11.00;;;14.90;99.90;;;;;;5068610;28;20230;-79
2022/04/24 07:57:34;;;;;;;13.30;10.23;;;16.90;99.90;;;;;;5078927;28;20506;-80
2022/04/24 08:00:24;;;;;;;13.23;9.95;;;17.50;99.90;;;;;;5059321;28;20224;-80
2022/04/24 08:03:15;;;;;;;10.95;8.68;;;18.70;99.90;;;;;;5062459;28;20223;-85
2022/04/24 08:06:04;;;;;;;10.23;8.95;;;18.60;99.90;;;;;;5065165;28;20595;-76
2022/04/24 08:08:54;;;;;;;12.43;9.02;;;21.30;96.70;;;;;;5076299;28;20750;-75
2022/04/24 08:11:42;;;;;;;10.63;9.45;;;21.20;93.50;;;;;;5078587;28;20357;-74
2022/04/24 08:14:31;;;;;;;11.32;8.07;;;22.60;87.70;;;;;;5084447;28;20246;-74
2022/04/24 08:17:19;;;;;;;10.23;8.27;;;22.60;84.20;;;;;;5080125;28;20220;-77
2022/04/24 08:20:09;;;;;;;11.63;7.95;;;23.40;77.70;;;;;;5075948;28;20226;-74
2022/04/24 08:22:59;;;;;;;10.52;7.13;;;23.20;77.00;;;;;;5064370;28;20217;-75
2022/04/24 08:25:50;;;;;;;7.95;6.70;;;21.50;76.60;;;;;;5079716;28;20677;-74
2022/04/24 08:28:38;;;;;;;7.57;6.03;;;21.00;81.30;;;;;;5066881;28;20239;-76
2022/04/24 08:31:27;;;;;;;10.10;6.40;;;20.50;78.20;;;;;;5065674;28;20359;-73
2022/04/24 08:34:16;;;;;;;8.80;7.20;;;19.30;81.50;;;;;;5059085;28;20261;-73
2022/04/24 08:37:05;;;;;;;7.95;6.93;;;17.10;90.40;;;;;;5075113;28;20216;-81
2022/04/24 08:39:54;;;;;;;8.23;7.20;;;16.90;91.40;;;;;;5075092;28;20230;-73
2022/04/24 08:42:45;;;;;;;7.28;6.55;;;19.70;86.70;;;;;;5077888;28;20621;-72
2022/04/24 08:45:34;;;;;;;7.68;6.82;;;19.70;83.30;;;;;;5075702;28;20535;-72
2022/04/24 08:48:23;;;;;;;6.57;5.60;;;20.00;84.10;;;;;;5064551;28;20309;-71
2022/04/24 08:51:12;;;;;;;7.20;6.43;;;21.40;76.10;;;;;;5076189;28;20224;-73
2022/04/24 15:18:54;;;;;;;4.80;4.30;;;15.10;92.30;;;;;;5059831;27;20595;-73
2022/04/24 15:21:43;;;;;;;4.35;3.95;;;15.00;92.50;;;;;;5035340;28;20237;-73
2022/04/24 15:24:32;;;;;;;4.60;4.05;;;14.90;92.40;;;;;;5034904;28;20213;-75
2022/04/24 15:27:22;;;;;;;6.10;4.28;;;14.70;92.40;;;;;;5030365;28;20291;-75
2022/04/24 15:30:11;;;;;;;4.38;3.70;;;14.80;92.90;;;;;;5031647;28;20259;-74
2022/04/24 15:33:00;;;;;;;4.90;4.13;;;14.80;92.90;;;;;;5031059;28;20239;-77
2022/04/24 15:35:50;;;;;;;4.78;4.20;;;14.70;92.90;;;;;;5031331;28;20299;-76
2022/04/24 15:38:47;;;;;;;4.80;4.30;;;14.80;93.20;;;;;;5030279;28;20378;-76
2022/04/24 15:41:36;;;;;;;4.22;3.70;;;14.80;93.30;;;;;;5034239;28;20218;-76
2022/04/24 15:44:25;;;;;;;4.38;3.78;;;14.70;92.50;;;;;;5033442;28;20228;-75
2022/04/24 15:47:17;;;;;;;4.65;3.67;;;14.70;92.10;;;;;;5037753;28;20217;-77
2022/04/24 15:50:07;;;;;;;3.63;3.33;;;14.80;91.90;;;;;;5031394;28;20222;-76
2022/04/24 15:52:57;;;;;;;4.43;3.28;;;14.80;91.20;;;;;;5054578;28;20232;-76
2022/04/24 15:55:46;;;;;;;4.22;3.30;;;14.60;90.90;;;;;;5054284;28;20566;-76
2022/04/24 15:58:35;;;;;;;4.47;3.35;;;14.70;91.10;;;;;;5073748;28;20220;-76
2022/04/24 16:01:23;;;;;;;4.00;3.38;;;14.70;91.30;;;;;;5068127;28;20363;-77
2022/04/24 16:04:12;;;;;;;3.72;3.42;;;14.80;91.50;;;;;;5047942;28;20324;-76
2022/04/24 16:07:02;;;;;;;3.53;2.95;;;14.70;91.60;;;;;;5075424;28;20585;-77
2022/04/24 16:09:52;;;;;;;4.53;3.70;;;14.70;91.60;;;;;;5098078;28;20760;-77
2022/04/24 16:12:40;;;;;;;4.10;3.70;;;14.70;92.00;;;;;;5092270;28;20231;-77
2022/04/24 16:15:29;;;;;;;3.42;3.13;;;14.60;92.40;;;;;;5076555;28;20222;-76
2022/04/24 16:18:19;;;;;;;4.10;3.65;;;14.70;92.50;;;;;;5090888;28;20343;-76
2022/04/24 16:21:08;;;;;;;3.95;3.55;;;14.70;92.50;;;;;;5086789;28;20220;-76
2022/04/24 16:23:56;;;;;;;3.80;3.40;;;14.80;92.40;;;;;;5094366;28;20233;-76
2022/04/24 16:26:49;;;;;;;3.72;3.33;;;14.70;92.20;;;;;;5092702;28;20226;-74
2022/04/24 16:29:56;;;;;;;3.97;3.58;;;14.70;92.20;;;;;;5078700;28;20219;-75
2022/04/24 16:32:46;;;;;;;3.65;3.35;;;14.60;92.40;;;;;;5079364;28;20686;-74
2022/04/24 16:35:40;;;;;;;4.00;3.60;;;14.60;92.80;;;;;;5080434;28;20239;-74
2022/04/24 16:38:29;;;;;;;4.13;3.70;;;14.50;93.20;;;;;;5078509;28;20236;-74
2022/04/24 16:41:20;;;;;;;5.57;3.60;;;14.40;93.70;;;;;;5084374;28;20230;-75
2022/04/24 16:44:11;;;;;;;4.40;3.30;;;14.40;93.90;;;;;;5064865;28;20239;-75
2022/04/24 16:46:59;;;;;;;5.32;3.80;;;14.40;94.10;;;;;;5081019;28;20278;-74
2022/04/24 16:49:48;;;;;;;4.40;3.83;;;14.50;94.10;;;;;;5080128;28;20246;-75
2022/04/24 16:58:50;;;;;;;4.95;3.60;;;14.30;94.80;;;;;;5077604;28;20227;-76
2022/04/24 17:01:41;;;;;;;4.25;3.83;;;14.30;95.10;;;;;;5080342;28;20220;-75
2022/04/24 17:04:30;;;;;;;4.20;3.80;;;14.20;95.30;;;;;;5080354;28;20220;-77
2022/04/24 17:07:24;;;;;;;5.32;3.80;;;14.30;95.40;;;;;;5078476;28;20322;-75
2022/04/24 17:10:13;;;;;;;4.22;3.75;;;14.20;95.90;;;;;;5065008;28;20223;-78
2022/04/24 17:13:05;;;;;;;4.90;3.38;;;14.20;96.00;;;;;;5065495;28;20227;-73
2022/04/24 17:15:54;;;;;;;4.00;3.60;;;14.10;96.20;;;;;;5077135;28;20220;-74
2022/04/24 17:18:44;;;;;;;5.97;3.63;;;14.00;96.70;;;;;;5079130;28;20367;-75
2022/04/24 17:21:34;;;;;;;4.40;4.00;;;14.00;96.90;;;;;;5073828;28;20223;-74
2022/04/24 17:24:23;;;;;;;13.88;11.00;;;14.00;97.50;;;;;;5070829;28;20265;-75
2022/04/24 17:27:14;;;;;;;4.43;3.85;;;14.00;98.10;;;;;;5080136;28;20454;-75
2022/04/24 17:30:02;;;;;;;4.53;3.90;;;13.90;98.50;;;;;;5076237;28;20686;-73
2022/04/24 17:32:51;;;;;;;6.10;4.20;;;14.00;99.20;;;;;;5061257;28;20219;-73
2022/04/24 17:35:42;;;;;;;5.10;4.13;;;13.90;99.70;;;;;;5077036;28;20216;-74
2022/04/24 17:38:31;;;;;;;5.63;4.20;;;13.90;99.90;;;;;;5078856;28;20715;-74
2022/04/24 17:41:20;;;;;;;5.22;3.95;;;13.80;99.90;;;;;;5063608;28;20219;-72
2022/04/24 17:44:10;;;;;;;4.50;4.03;;;13.80;99.90;;;;;;5065170;28;20220;-72
2022/04/24 17:46:58;;;;;;;4.20;3.80;;;13.80;99.90;;;;;;5079460;28;20323;-71
2022/04/24 17:49:47;;;;;;;5.95;4.47;;;13.80;99.90;;;;;;5079240;28;20277;-72
2022/04/24 17:52:38;;;;;;;4.75;3.63;;;13.80;99.90;;;;;;5074727;28;20224;-72
2022/04/24 17:55:27;;;;;;;5.65;4.50;;;13.80;99.90;;;;;;5073612;28;20511;-72
2022/04/24 17:58:16;;;;;;;4.30;3.90;;;13.70;99.90;;;;;;5064488;28;20235;-72
2022/04/24 18:01:05;;;;;;;4.85;4.10;;;13.60;99.90;;;;;;5075262;28;20224;-71
2022/04/24 18:03:55;;;;;;;5.57;4.60;;;13.60;99.90;;;;;;5078749;28;20219;-72
2022/04/24 18:06:45;;;;;;;6.47;4.10;;;13.60;99.90;;;;;;5059711;28;20229;-71
2022/04/24 18:09:36;;;;;;;6.25;4.15;;;13.60;99.90;;;;;;5075560;28;20219;-72
2022/04/24 18:12:28;;;;;;;7.82;6.28;;;13.50;99.90;;;;;;5073537;28;20212;-72
2022/04/24 18:15:17;;;;;;;8.75;4.50;;;13.50;99.90;;;;;;5074749;28;20231;-72
2022/04/24 18:18:06;;;;;;;4.32;3.70;;;13.50;99.90;;;;;;5073677;28;20302;-72
2022/04/24 18:20:55;;;;;;;5.20;4.30;;;13.60;99.90;;;;;;5072720;28;20219;-72
2022/04/24 18:23:44;;;;;;;4.75;4.28;;;13.50;99.90;;;;;;5074282;28;20226;-72
2022/04/24 18:26:35;;;;;;;5.90;4.72;;;13.50;99.90;;;;;;5060215;28;20230;-72
2022/04/24 18:29:24;;;;;;;5.90;4.20;;;13.50;99.90;;;;;;5076298;28;20215;-71
2022/04/24 18:32:14;;;;;;;5.15;4.30;;;13.30;99.90;;;;;;5058752;28;20558;-72
2022/04/24 18:35:03;;;;;;;4.72;4.18;;;13.30;99.90;;;;;;5076138;28;20227;-72
2022/04/24 18:38:05;;;;;;;6.00;5.05;;;13.20;99.90;;;;;;5082385;28;20230;-72
2022/04/24 18:40:55;;;;;;;5.25;4.53;;;13.10;99.90;;;;;;5074090;28;20223;-72
2022/04/24 18:43:45;;;;;;;5.95;4.68;;;13.20;99.90;;;;;;5061607;28;20227;-72
2022/04/24 18:46:34;;;;;;;5.70;4.53;;;13.10;99.90;;;;;;5077352;28;20302;-71
2022/04/24 18:49:24;;;;;;;5.10;4.47;;;13.20;99.90;;;;;;5073241;28;20248;-72
2022/04/24 18:52:19;;;;;;;5.93;5.10;;;13.10;99.90;;;;;;5073176;28;21162;-72
2022/04/24 18:55:08;;;;;;;6.95;4.82;;;13.10;99.90;;;;;;5078697;28;20604;-73
2022/04/24 18:57:57;;;;;;;6.05;4.70;;;13.10;99.90;;;;;;5076142;28;20220;-72
2022/04/24 19:00:47;;;;;;;6.07;4.80;;;13.10;99.90;;;;;;5058087;28;20360;-73
2022/04/24 19:03:35;;;;;;;6.93;4.65;;;13.00;99.90;;;;;;5074977;28;20364;-72
2022/04/24 19:11:13;;;;;;;5.78;4.68;;;13.00;99.90;;;;;;5075841;28;20219;-72
2022/04/24 19:12:39;;;;;;;5.78;4.72;;;13.00;99.90;;;;;;5079283;28;20215;-72
2022/04/24 19:15:29;;;;;;;6.15;5.05;;;12.90;99.90;;;;;;5073533;28;20713;-72
2022/04/24 19:18:25;;;;;;;6.78;4.93;;;12.90;99.90;;;;;;5077625;28;20288;-72
2022/04/24 19:21:14;;;;;;;8.88;5.45;;;12.90;99.90;;;;;;5076525;28;20300;-72
2022/04/24 19:24:02;;;;;;;6.38;5.25;;;12.90;99.90;;;;;;5077427;28;20592;-72
2022/04/24 19:26:51;;;;;;;7.35;5.32;;;12.90;99.90;;;;;;5079238;28;20231;-73
2022/04/24 19:29:40;;;;;;;5.93;4.85;;;12.90;99.90;;;;;;5063575;28;20267;-72
2022/04/24 19:32:28;;;;;;;5.63;5.13;;;13.00;99.90;;;;;;5077328;28;20216;-72
2022/04/24 19:35:19;;;;;;;7.05;5.38;;;13.00;99.90;;;;;;5076015;28;20227;-72
2022/04/24 19:38:08;;;;;;;7.40;5.50;;;13.00;99.90;;;;;;5075260;28;20219;-72
2022/04/24 19:40:57;;;;;;;6.15;5.47;;;12.90;99.90;;;;;;5075583;28;20274;-72
2022/04/24 19:43:46;;;;;;;5.85;5.00;;;13.00;99.90;;;;;;5079157;28;20333;-71
2022/04/24 19:46:35;;;;;;;7.15;5.60;;;12.80;99.90;;;;;;5061791;28;20234;-71
2022/04/24 19:49:27;;;;;;;7.80;5.50;;;12.80;99.90;;;;;;5075318;28;20772;-73
2022/04/24 19:52:17;;;;;;;7.20;5.43;;;12.70;99.90;;;;;;5064833;28;20220;-72
2022/04/24 19:55:07;;;;;;;6.70;5.53;;;12.70;99.90;;;;;;5072539;28;20250;-72
2022/04/24 19:57:56;;;;;;;6.60;5.40;;;12.80;99.90;;;;;;5081192;28;20208;-73
2022/04/24 20:00:44;;;;;;;8.98;5.53;;;12.70;99.90;;;;;;5078586;28;20230;-71
2022/04/24 20:03:33;;;;;;;6.50;5.80;;;12.80;99.90;;;;;;5073434;28;20241;-71
2022/04/24 20:06:22;;;;;;;8.90;5.30;;;12.90;99.90;;;;;;5069809;28;20230;-72
2022/04/24 20:09:12;;;;;;;7.82;5.68;;;12.70;99.90;;;;;;5068396;28;20849;-73
2022/04/24 20:12:01;;;;;;;7.75;5.15;;;12.60;99.90;;;;;;5068596;28;20288;-73
2022/04/24 20:14:50;;;;;;;8.23;5.82;;;12.60;99.90;;;;;;5065688;28;20226;-72
2022/04/24 20:17:39;;;;;;;6.45;5.63;;;12.60;99.90;;;;;;5076819;28;20576;-73
2022/04/24 20:20:28;;;;;;;6.78;5.20;;;12.50;99.90;;;;;;5078853;28;20224;-73
2022/04/24 20:23:17;;;;;;;8.15;6.40;;;12.40;99.90;;;;;;5076927;28;20304;-73
2022/04/24 20:26:07;;;;;;;7.95;6.00;;;12.30;99.90;;;;;;5081343;28;20212;-72
2022/04/24 20:28:56;;;;;;;7.25;5.80;;;12.20;99.90;;;;;;5082472;28;20336;-73
2022/04/24 20:31:45;;;;;;;8.02;6.13;;;12.00;99.90;;;;;;5078058;28;20323;-73
2022/04/24 20:34:34;;;;;;;9.38;6.38;;;11.90;99.90;;;;;;5066016;28;20982;-73
2022/04/24 20:37:23;;;;;;;8.02;6.55;;;11.90;99.90;;;;;;5079312;28;20819;-73
2022/04/24 20:40:12;;;;;;;8.93;6.00;;;11.80;99.90;;;;;;5080846;28;20230;-72
2022/04/24 20:43:04;;;;;;;8.63;6.57;;;11.80;99.90;;;;;;5077337;28;20219;-71
2022/04/24 20:45:53;;;;;;;8.77;6.93;;;11.90;99.90;;;;;;5065376;28;20227;-71
2022/04/24 20:48:42;;;;;;;9.85;7.40;;;12.10;99.90;;;;;;5079186;28;20223;-71
2022/04/24 20:51:30;;;;;;;9.63;7.20;;;11.60;99.90;;;;;;5073301;28;20216;-71
2022/04/24 20:54:19;;;;;;;10.05;8.23;;;11.40;99.90;;;;;;5085620;28;20219;-71
2022/04/24 20:57:08;;;;;;;10.30;8.07;;;11.30;99.90;;;;;;5080495;28;20224;-72
2022/04/24 20:59:59;;;;;;;9.63;7.93;;;11.10;99.90;;;;;;5089479;28;20237;-72
2022/04/24 21:02:47;;;;;;;9.82;7.18;;;10.90;99.90;;;;;;5064881;28;20264;-71
2022/04/24 21:05:36;;;;;;;14.23;8.27;;;10.70;99.90;;;;;;5080559;28;20219;-71
2022/04/24 21:08:45;;;;;;;11.00;8.05;;;10.50;99.90;;;;;;5078862;28;20260;-71